KRH465R EGVN-KADW
Flight info
| Callsign | KRH465R |
|---|---|
| Flight time | N/A |
| Altitude | 24000 |
| Route | CONKO Q63 ZIPWE/N0433F360 DCT CML DCT SHA DCT GISTI DCT MALOT/M076F380 DCT 53N020W 52N030W 51N040W 50N050W DCT ELSIR/N0434F380 N398B TUSKY Q475 COPLY Q75 BIZEX Q133 MGERK DCT LAFLN SPISY2 |
| Aircraft | A21N/M-SDE2E3FGHIJ1RWXY/LB1 |
Departure
| Time | 2026-05-01 08:01 |
|---|---|
| Airport | RAF Brize Norton (EGVN) |
Arrival
| Time | N/A |
|---|---|
| Airport | Joint Base Andrews (KADW) |
| Time | Latitude | Longitude | Altitude | Speed | Heading |
|---|---|---|---|---|---|
| 2026-05-01 07:23 | 51.75770 | -1.57712 | 270 ft | 0 kts | 329° |
| 2026-05-01 07:50 | 51.75752 | -1.57695 | 269 ft | 4 kts | 326° |
| 2026-05-01 07:50 | 51.75711 | -1.57639 | 269 ft | 3 kts | 313° |
| 2026-05-01 07:50 | 51.75706 | -1.57629 | 269 ft | 0 kts | 313° |
| 2026-05-01 07:55 | 51.75657 | -1.57653 | 269 ft | 8 kts | 191° |
| 2026-05-01 07:55 | 51.75530 | -1.57720 | 269 ft | 12 kts | 201° |
| 2026-05-01 07:56 | 51.75269 | -1.57944 | 270 ft | 17 kts | 207° |
| 2026-05-01 07:56 | 51.75044 | -1.58130 | 269 ft | 19 kts | 207° |
| 2026-05-01 07:57 | 51.74919 | -1.58234 | 270 ft | 21 kts | 207° |
| 2026-05-01 07:57 | 51.74660 | -1.58488 | 269 ft | 23 kts | 256° |
| 2026-05-01 07:58 | 51.74567 | -1.59019 | 269 ft | 26 kts | 252° |
| 2026-05-01 07:58 | 51.74455 | -1.59597 | 269 ft | 28 kts | 252° |
| 2026-05-01 07:59 | 51.74460 | -1.59932 | 269 ft | 15 kts | 297° |
| 2026-05-01 07:59 | 51.74511 | -1.60287 | 270 ft | 19 kts | 315° |
| 2026-05-01 08:00 | 51.74994 | -1.58310 | 270 ft | 141 kts | 74° |
| 2026-05-01 08:01 | 51.76168 | -1.53246 | 1725 ft | 170 kts | 45° |
| 2026-05-01 08:01 | 51.77290 | -1.52356 | 2062 ft | 196 kts | 8° |
| 2026-05-01 08:01 | 51.78680 | -1.52852 | 2550 ft | 221 kts | 329° |
| 2026-05-01 08:02 | 51.80044 | -1.57668 | 3563 ft | 263 kts | 258° |
| 2026-05-01 08:02 | 51.79361 | -1.60354 | 4521 ft | 260 kts | 235° |
| 2026-05-01 08:03 | 51.77469 | -1.65420 | 6425 ft | 270 kts | 240° |
| 2026-05-01 08:03 | 51.76623 | -1.68148 | 7352 ft | 274 kts | 243° |
| 2026-05-01 08:03 | 51.76284 | -1.74336 | 9140 ft | 289 kts | 277° |
| 2026-05-01 08:04 | 51.77014 | -1.80871 | 10668 ft | 310 kts | 277° |
| 2026-05-01 08:04 | 51.77180 | -1.88081 | 11859 ft | 329 kts | 250° |
| 2026-05-01 08:05 | 51.75148 | -1.94686 | 13616 ft | 332 kts | 236° |
| 2026-05-01 08:05 | 51.73856 | -1.97777 | 14411 ft | 333 kts | 224° |
| 2026-05-01 08:05 | 51.72074 | -2.00085 | 15184 ft | 329 kts | 205° |
| 2026-05-01 08:06 | 51.67721 | -2.02371 | 16767 ft | 332 kts | 193° |
| 2026-05-01 08:06 | 51.63715 | -2.06259 | 18208 ft | 352 kts | 224° |
| 2026-05-01 08:07 | 51.61806 | -2.12142 | 19314 ft | 372 kts | 254° |
| 2026-05-01 08:07 | 51.62113 | -2.20619 | 20619 ft | 390 kts | 278° |
| 2026-05-01 08:08 | 51.62728 | -2.24899 | 21238 ft | 394 kts | 279° |
| 2026-05-01 08:08 | 51.64041 | -2.33562 | 22383 ft | 402 kts | 280° |
| 2026-05-01 08:09 | 51.65374 | -2.42375 | 23523 ft | 408 kts | 280° |
| 2026-05-01 08:09 | 51.66042 | -2.46828 | 24090 ft | 410 kts | 280° |
| 2026-05-01 08:09 | 51.66707 | -2.51305 | 24621 ft | 413 kts | 280° |
| 2026-05-01 08:10 | 51.68045 | -2.60359 | 25630 ft | 418 kts | 280° |
| 2026-05-01 08:10 | 51.69388 | -2.69527 | 26599 ft | 422 kts | 280° |
| 2026-05-01 08:11 | 51.71012 | -2.78691 | 27463 ft | 428 kts | 284° |
| 2026-05-01 08:11 | 51.72853 | -2.88051 | 28306 ft | 433 kts | 284° |
| 2026-05-01 08:12 | 51.74635 | -2.97204 | 29074 ft | 436 kts | 284° |
| 2026-05-01 08:12 | 51.75543 | -3.01893 | 29426 ft | 439 kts | 284° |
| 2026-05-01 08:12 | 51.77365 | -3.11332 | 30123 ft | 442 kts | 284° |
| 2026-05-01 08:13 | 51.78278 | -3.16073 | 30440 ft | 444 kts | 284° |
| 2026-05-01 08:13 | 51.79193 | -3.20858 | 30759 ft | 446 kts | 284° |
| 2026-05-01 08:13 | 51.81025 | -3.30462 | 31402 ft | 449 kts | 284° |
| 2026-05-01 08:14 | 51.81945 | -3.35300 | 31711 ft | 451 kts | 284° |
| 2026-05-01 08:14 | 51.82867 | -3.40146 | 32014 ft | 453 kts | 284° |
| 2026-05-01 08:14 | 51.83792 | -3.45026 | 32323 ft | 454 kts | 284° |
| 2026-05-01 08:14 | 51.84789 | -3.50299 | 32777 ft | 452 kts | 284° |
| 2026-05-01 08:15 | 51.85629 | -3.54752 | 33169 ft | 450 kts | 285° |
| 2026-05-01 08:15 | 51.87437 | -3.64412 | 33905 ft | 447 kts | 285° |
| 2026-05-01 08:15 | 51.88335 | -3.69229 | 34264 ft | 446 kts | 285° |
| 2026-05-01 08:16 | 51.89227 | -3.74026 | 34580 ft | 445 kts | 285° |
| 2026-05-01 08:16 | 51.90120 | -3.78823 | 34841 ft | 445 kts | 285° |
| 2026-05-01 08:16 | 51.91013 | -3.83629 | 35104 ft | 445 kts | 285° |
| 2026-05-01 08:16 | 51.91900 | -3.88421 | 35344 ft | 445 kts | 285° |
| 2026-05-01 08:17 | 51.92788 | -3.93222 | 35607 ft | 444 kts | 285° |
| 2026-05-01 08:17 | 51.93671 | -3.98023 | 35839 ft | 444 kts | 285° |
| 2026-05-01 08:17 | 51.94549 | -4.02817 | 36050 ft | 444 kts | 284° |
| 2026-05-01 08:17 | 51.95427 | -4.07613 | 36215 ft | 444 kts | 285° |
| 2026-05-01 08:18 | 51.96304 | -4.12409 | 36207 ft | 443 kts | 284° |
| 2026-05-01 08:19 | 51.99778 | -4.31591 | 36170 ft | 443 kts | 284° |
| 2026-05-01 08:19 | 52.01501 | -4.41193 | 36169 ft | 443 kts | 284° |
| 2026-05-01 08:20 | 52.03224 | -4.50797 | 36170 ft | 443 kts | 284° |
| 2026-05-01 08:20 | 52.04932 | -4.60415 | 36168 ft | 443 kts | 284° |
| 2026-05-01 08:21 | 52.06616 | -4.69969 | 36172 ft | 443 kts | 283° |
| 2026-05-01 08:21 | 52.08305 | -4.79599 | 36169 ft | 443 kts | 283° |
| 2026-05-01 08:22 | 52.09995 | -4.89239 | 36170 ft | 444 kts | 283° |
| 2026-05-01 08:22 | 52.11678 | -4.98893 | 36170 ft | 444 kts | 283° |
| 2026-05-01 08:23 | 52.13361 | -5.08554 | 36171 ft | 444 kts | 283° |